Pagina principale
METAR-TAF:

METAR-TAF

Aeroporti :

Brescia Ghedi, Italia

Aeroporto di Brescia-Ghedi

latitudine: 45-25N, longitudine: 010-17E, altezza: 102 m

Osservazione

Il bollettino è stato emesso 1 ora e 18 minuti fa, alle 10:55 UTC
Temperature 9°C
Umidità 66%
Pressione 1013 hPa
Visibilità: 5000 m
foschia

METAR: LIPL 191055Z /////KT 5000 BR NSC 09/03 Q1013 RMK SCT SCT200 VIS MIN 5000 WIND THR31 21004KT WHT

Ora: 13:13 (12:13 UTC)

Previsione

Il bollettino è stato emesso 1 ora e 13 minuti fa, alle 11:00 UTC
Previsione valida dal 19 alle 12 UTC al 19 alle 21 UTC
Vento 5 kt da sud
Visibilità: 4000 m
foschia
Temporaneamente
dal 19 alle 12 UTC al 19 alle 18 UTC
Visibilità: 7000 m

TAF: LIPL 191100Z 1912/1921 19005KT 4000 BR NSC TEMPO 1912/1918 7000 NSC

Osservazioni e previsioni meteorologiche di più di 4000 aeroporti (messaggi METAR e TAF).

Le stazioni disponibili sono rappresentate dai dischi gialli e rossi sulla carta.

Puntare il mouse per vedere il nome della stazione.

Clicca sopra per visualizzare le osservazioni e previsioni meteorologiche.

Per cambiare la mappa : fare clic sui pulsanti verdi con una croce nera per ingrandire, il pulsante verde con un trattino per diminuire, o sulla freccia verde per le mappe adiacenti.


METAR-TAF: